METAR Data
IDs: Format: Raw Decoded Include TAF

Data at: 0239 UTC 24 Sep 2018

KGKY 240230Z AUTO 35006KT 10SM OVC009 22/22 A2991 RMK AO2 CIG 007V013 T02170217
KGKY 240153Z AUTO 34005KT 10SM OVC012 22/22 A2990 RMK AO2 SLP118 T02170217
KGKY 240146Z AUTO 34005KT 10SM SCT008 OVC014 22/21 A2990 RMK AO2 T02170211
KGKY 240127Z 34006KT 10SM BKN008 OVC016 22/21 A2989 RMK AO2 CIG 007V012 T02170211
KGKY 240053Z 33006KT 10SM OVC010 22/21 A2988 RMK AO2 CIG 007V014 SLP112 T02170211
KGKY 232353Z 33006KT 10SM BKN009 OVC012 22/22 A2988 RMK AO2 CIG 005V010 SLP111 60001 T02170217 10233 20206 56004
KGKY 232315Z 33006KT 10SM BKN007 OVC013 22/21 A2988 RMK AO2 CIG 005V009 T02170211
KGKY 232253Z 32006KT 10SM FEW007 OVC012 22/22 A2988 RMK AO2 SLP112 T02220217
KGKY 232228Z 32008KT 10SM FEW006 OVC013 22/21 A2989 RMK AO2 T02170211
KGKY 232153Z 34005KT 6SM BR OVC013 22/21 A2989 RMK AO2 SLP113 T02170211
KGKY 232053Z 36006KT 10SM OVC013 23/21 A2989 RMK AO2 SLP115 60001 T02280211 58015
KGKY 232031Z 36006KT 10SM OVC010 22/21 A2990 RMK AO2 CIG 009V014 T02220206
KGKY 231953Z 33007KT 9SM OVC009 22/21 A2990 RMK AO2 CIG 008V013 SLP118 T02220211
KGKY 231853Z 34007KT 10SM BKN008 OVC012 21/21 A2994 RMK AO2 CIG 005V011 SLP130 P0001 T02110206
KGKY 231851Z 34009KT 10SM OVC008 21/21 A2994 RMK AO2 CIG 005V011 P0001
KGKY 231844Z 35008KT 2 1/2SM OVC008 21/21 A2994 RMK AO2 SFC VIS 8 CIG 004V011 P0001 T02110206
KGKY 231753Z 35009KT 1 1/2SM BR BKN005 OVC009 21/21 A2995 RMK AO2 SFC VIS 2 1/2 RAB33E48 CIG 003V007 SLP136 P0000 60000 T02060206 10211 20200 50004
KGKY 231711Z 33007KT 1 1/2SM OVC005 21/21 A2996 RMK AO2 SFC VIS 7 T02060206
KGKY 231653Z 35006KT 1 1/2SM OVC004 21/21 A2996 RMK AO2 SFC VIS 10 SLP137 T02060206
KGKY 231620Z 34007KT 1 1/2SM BR OVC003 20/20 A2996 RMK AO2 SFC VIS 6 T02000200
KGKY 231610Z 35008KT 1 1/2SM BR OVC004 20/20 A2996 RMK AO2 SFC VIS 5 T02000200
KGKY 231553Z 36007KT 1 1/2SM OVC003 20/20 A2996 RMK AO2 SFC VIS 8 SLP137 T02000200
KGKY 231515Z 35009KT 1 1/2SM BR OVC003 20/20 A2995 RMK AO2 SFC VIS 4 T02000200
KGKY 231453Z 01008KT 10SM OVC004 20/20 A2994 RMK AO2 SLP132 T02000200 53014
KGKY 231429Z 35009KT 3SM BR OVC004 20/20 A2993 RMK AO2 T02000200
KGKY 231420Z 35008KT 2 1/2SM BR OVC004 20/20 A2993 RMK AO2 T02000200
KGKY 231353Z 34010KT 3SM BR OVC004 20/20 A2992 RMK AO2 SLP126 T02000200
KGKY 231253Z 35008KT 4SM BR OVC004 20/20 A2992 RMK AO2 SLP123 T02000200
KGKY 231220Z 34008KT 3SM BR OVC004 20/20 A2991 RMK AO2 T02000200
KGKY 231207Z 34007KT 3SM BR OVC003 20/20 A2990 RMK AO2 T02000200
KGKY 231153Z 34008KT 2 1/2SM BR OVC003 20/20 A2990 RMK AO2 SLP118 60007 70062 T02000200 10211 20194 53005
KGKY 231140Z 34007KT 2 1/2SM BR OVC003 20/20 A2990 RMK AO2 T02000200
KGKY 231053Z AUTO 34007KT 3SM BR OVC002 20/20 A2989 RMK AO2 SLP114 T02000200
KGKY 230953Z AUTO 36008KT 10SM OVC003 20/20 A2988 RMK AO2 SLP112 P0001 T02000200
KGKY 230951Z AUTO 35007KT 10SM OVC003 20/20 A2988 RMK AO2 P0001
KGKY 230929Z AUTO 35009KT 10SM OVC004 21/21 A2988 RMK AO2 P0001 T02060206
KGKY 230853Z AUTO 36006KT 10SM OVC003 21/21 A2989 RMK AO2 RAE22 SLP114 P0002 60006 T02060206 58005
KGKY 230806Z AUTO 36004KT 5SM -RA BR OVC004 21/21 A2990 RMK AO2 P0001 T02060206
KGKY 230753Z AUTO 36006KT 5SM -RA BR OVC005 21/21 A2990 RMK AO2 SLP119 P0002 T02060206
KGKY 230711Z AUTO 36009KT 5SM -RA BR OVC005 21/21 A2990 RMK AO2 P0001 T02060206
KGKY 230653Z AUTO 35010KT 4SM -RA BR OVC004 21/21 A2990 RMK AO2 RAB04 SLP119 P0002 T02060206
KGKY 230651Z AUTO 35011KT 4SM -RA BR OVC004 21/21 A2990 RMK AO2 RAB04 P0002
KGKY 230634Z AUTO 34008KT 4SM -RA BR OVC003 21/21 A2990 RMK AO2 RAB04 P0002 T02060206
KGKY 230605Z AUTO 32007KT 9SM -RA OVC004 21/21 A2991 RMK AO2 RAB04 P0001 T02060206
KGKY 230553Z AUTO 31006KT 6SM BR OVC005 21/21 A2990 RMK AO2 RAE06 SLP119 P0002 60017 T02060206 10222 20206 402440206 58003
KGKY 230453Z AUTO 32005KT 5SM -RA BR OVC005 21/21 A2991 RMK AO2 SLP121 P0002 T02060206
KGKY 230353Z AUTO 31007KT 4SM -RA BR OVC005 21/21 A2992 RMK AO2 SLP124 P0003 T02060206
KGKY 230253Z AUTO 34010KT 4SM -RA BR OVC007 21/21 A2991 RMK AO2 SLP123 P0003 60010 T02060206 53012
KGKY 230153Z AUTO 35011KT 10SM -RA OVC008 21/21 A2990 RMK AO2 RAB10E19B52 SLP118 P0003 T02110206
KGKY 230053Z 34012KT 10SM OVC008 21/21 A2989 RMK AO2 RAE2358 SLP114 P0004 T02110211
KGKY 222353Z 35011KT 10SM -RA OVC008 22/22 A2988 RMK AO2 RAB46 SLP110 P0001 60013 T02220217 10244 20222 53003
KGKY 222253Z 34012KT 10SM OVC008 23/22 A2987 RMK AO2 SLP106 T02280222
KGKY 222153Z 33010KT 10SM OVC007 23/22 A2987 RMK AO2 SLP105 P0003 T02280222
KGKY 222053Z 33011KT 10SM OVC007 23/22 A2987 RMK AO2 RAB29E39 SLP106 P0002 60009 T02330222 56014
KGKY 221953Z 30008KT 6SM BR OVC007 23/23 A2987 RMK AO2 CIG 005V010 SLP107 P0002 T02330233
KGKY 221921Z 31005KT 3SM BKN005 OVC009 24/24 A2988 RMK AO2 SFC VIS 8 CIG 004V007 P0002 T02390239
KGKY 221853Z 26004KT 2 1/2SM BR OVC006 23/23 A2989 RMK AO2 SFC VIS 3 RAB09E21 SLP113 P0005 T02330233
KGKY 221829Z 25004KT 2 1/2SM BR OVC006 23/23 A2990 RMK AO2 SFC VIS 4 RAB09E21 P0002 T02330233
KGKY 221753Z 25006KT 9SM OVC005 23/23 A2991 RMK AO2 SLP120 60025 T02330228 10233 20222 50001
KGKY 221653Z 26005KT 9SM OVC005 23/23 A2992 RMK AO2 SLP123 T02330233
KGKY 221630Z 27006KT 9SM OVC005 23/23 A2992 RMK AO2 T02330228
KGKY 221615Z 28006KT 4SM BR OVC004 23/23 A2991 RMK AO2 T02330233
KGKY 221553Z VRB03KT 6SM BR OVC005 23/23 A2991 RMK AO2 SLP121 T02280228
KGKY 221546Z 28007KT 9SM OVC005 23/23 A2991 RMK AO2 CIG 004V008 T02280228
KGKY 221503Z 29006KT 5SM BR OVC004 23/23 A2991 RMK AO2 T02280228
KGKY 221453Z 27006KT 5SM BR OVC006 23/23 A2991 RMK AO2 CIG 004V007 SLP119 P0007 60025 T02280228 53007